createdAt,value
2022-08-29T00:01:12.262Z,17.29
2022-08-29T00:03:42.124Z,17.31
2022-08-29T00:06:10.679Z,17.32
2022-08-29T00:08:37.421Z,17.33
2022-08-29T00:11:06.701Z,17.35
2022-08-29T00:13:34.759Z,17.33
2022-08-29T00:16:01.626Z,17.33
2022-08-29T00:18:28.472Z,17.27
2022-08-29T00:20:55.814Z,17.26
2022-08-29T00:23:22.600Z,17.25
2022-08-29T00:25:49.477Z,17.32
2022-08-29T00:28:16.520Z,17.32
2022-08-29T00:30:43.480Z,17.32
2022-08-29T00:33:10.455Z,17.32
2022-08-29T00:35:39.536Z,17.32
2022-08-29T00:38:08.990Z,17.29
2022-08-29T00:40:41.595Z,17.29
2022-08-29T00:43:09.230Z,17.28
2022-08-29T00:45:38.663Z,17.28
2022-08-29T00:48:10.396Z,17.26
2022-08-29T00:51:03.397Z,17.26
2022-08-29T00:53:44.434Z,17.22
2022-08-29T00:56:14.626Z,17.21
2022-08-29T00:58:47.971Z,17.19
2022-08-29T01:01:14.885Z,17.19
2022-08-29T01:03:42.791Z,17.17
2022-08-29T01:06:11.539Z,17.14
2022-08-29T01:08:38.358Z,17.11
2022-08-29T01:11:24.893Z,17.07
2022-08-29T01:13:54.955Z,17.01
2022-08-29T01:16:24.273Z,16.97
2022-08-29T01:18:54.536Z,16.92
2022-08-29T01:21:30.139Z,16.86
2022-08-29T01:24:15.511Z,16.75
2022-08-29T01:26:44.589Z,16.68
2022-08-29T01:29:11.642Z,16.58
2022-08-29T01:31:57.416Z,16.50
2022-08-29T01:34:27.231Z,16.41
2022-08-29T01:37:04.185Z,16.30
2022-08-29T01:39:36.477Z,16.22
2022-08-29T01:42:10.068Z,16.16
2022-08-29T01:44:38.307Z,16.10
2022-08-29T01:47:07.264Z,16.02
2022-08-29T01:49:38.503Z,15.95
2022-08-29T01:52:07.748Z,15.88
2022-08-29T01:54:34.936Z,15.80
2022-08-29T01:57:02.171Z,15.72
2022-08-29T01:59:30.924Z,15.66
2022-08-29T02:02:08.947Z,15.59
2022-08-29T02:04:36.067Z,15.50
2022-08-29T02:07:03.912Z,15.40
2022-08-29T02:09:30.881Z,15.33
2022-08-29T02:12:00.292Z,15.28
2022-08-29T02:14:27.117Z,15.25
2022-08-29T02:16:53.852Z,15.18
2022-08-29T02:19:20.988Z,15.09
2022-08-29T02:21:51.148Z,14.99
2022-08-29T02:24:26.350Z,14.94
2022-08-29T02:26:55.921Z,14.90
2022-08-29T02:29:23.200Z,14.88
2022-08-29T02:31:50.160Z,14.88
2022-08-29T02:34:17.185Z,14.89
2022-08-29T02:36:44.008Z,14.84
2022-08-29T02:39:11.674Z,14.83
2022-08-29T02:41:38.929Z,14.83
2022-08-29T02:44:06.189Z,14.85
2022-08-29T02:46:33.279Z,14.87
2022-08-29T02:49:01.437Z,14.87
2022-08-29T02:51:33.488Z,14.85
2022-08-29T02:54:01.472Z,14.81
2022-08-29T02:56:29.496Z,14.79
2022-08-29T02:58:56.449Z,14.77
2022-08-29T03:01:24.073Z,14.73
2022-08-29T03:03:51.330Z,14.68
2022-08-29T03:06:19.321Z,14.65
2022-08-29T03:08:46.774Z,14.61
2022-08-29T03:11:14.116Z,14.62
2022-08-29T03:13:44.085Z,14.62
2022-08-29T03:16:12.203Z,14.66
2022-08-29T03:18:39.970Z,14.65
2022-08-29T03:21:19.713Z,14.61
2022-08-29T03:23:48.192Z,14.56
2022-08-29T03:26:15.206Z,14.55
2022-08-29T03:28:42.365Z,14.53
2022-08-29T03:31:09.780Z,14.53
2022-08-29T03:33:37.372Z,14.58
2022-08-29T03:36:07.822Z,14.66
2022-08-29T03:38:42.495Z,14.74
2022-08-29T03:41:09.875Z,14.87
2022-08-29T03:43:36.646Z,15.00
2022-08-29T03:46:03.822Z,15.23
2022-08-29T03:48:30.789Z,15.49
2022-08-29T03:50:57.659Z,15.81
2022-08-29T03:53:24.584Z,16.10
2022-08-29T03:55:52.030Z,16.39
2022-08-29T03:58:19.339Z,16.63
2022-08-29T04:00:47.000Z,16.99
2022-08-29T04:03:14.094Z,17.41
2022-08-29T04:05:41.298Z,17.78
2022-08-29T04:08:08.689Z,18.19
2022-08-29T04:10:39.048Z,18.67
2022-08-29T04:13:07.945Z,19.13
2022-08-29T04:15:36.115Z,19.59
2022-08-29T04:18:06.800Z,20.01
2022-08-29T04:20:37.266Z,20.46
2022-08-29T04:23:06.105Z,20.89
2022-08-29T04:25:37.432Z,21.32
2022-08-29T04:28:07.823Z,21.59
2022-08-29T04:30:35.686Z,21.95
2022-08-29T04:33:02.537Z,22.12
2022-08-29T04:35:29.966Z,22.44
2022-08-29T04:37:57.072Z,22.51
2022-08-29T04:40:26.041Z,22.69
2022-08-29T04:42:52.923Z,22.84
2022-08-29T04:45:22.799Z,23.28
2022-08-29T04:47:49.730Z,23.65
2022-08-29T04:50:20.247Z,23.76
2022-08-29T04:52:49.292Z,24.27
2022-08-29T04:55:21.323Z,24.25
2022-08-29T04:57:50.464Z,24.82
2022-08-29T05:00:21.524Z,25.36
2022-08-29T05:02:48.492Z,26.04
2022-08-29T05:05:16.451Z,26.32
2022-08-29T05:07:45.276Z,26.79
2022-08-29T05:10:20.581Z,27.08
2022-08-29T05:12:48.190Z,26.77
2022-08-29T05:15:16.805Z,27.22
2022-08-29T05:17:43.894Z,27.88
2022-08-29T05:20:12.009Z,28.39
2022-08-29T05:22:40.402Z,28.41
2022-08-29T05:25:07.724Z,28.54
2022-08-29T05:27:34.525Z,29.22
2022-08-29T05:30:01.554Z,29.85
2022-08-29T05:32:28.471Z,30.43
2022-08-29T05:34:56.051Z,30.94
2022-08-29T05:37:23.385Z,31.37
2022-08-29T05:39:50.540Z,31.80
2022-08-29T05:42:19.916Z,32.09
2022-08-29T05:44:46.736Z,32.53
2022-08-29T05:47:15.518Z,33.01
2022-08-29T05:49:44.166Z,33.36
2022-08-29T05:52:13.361Z,33.46
2022-08-29T05:54:41.534Z,33.78
2022-08-29T05:57:12.379Z,33.80
2022-08-29T05:59:42.545Z,33.19
2022-08-29T06:02:10.868Z,32.32
2022-08-29T06:04:38.267Z,31.74
2022-08-29T06:07:06.044Z,32.01
2022-08-29T06:09:33.371Z,32.59
2022-08-29T06:12:00.298Z,33.09
2022-08-29T06:14:27.579Z,33.32
2022-08-29T06:16:54.825Z,34.02
2022-08-29T06:19:21.816Z,34.38
2022-08-29T06:21:49.055Z,35.03
2022-08-29T06:24:17.325Z,35.51
2022-08-29T06:26:45.406Z,35.73
2022-08-29T06:29:14.712Z,35.70
2022-08-29T06:31:41.835Z,35.99
2022-08-29T06:34:09.884Z,35.88
2022-08-29T06:36:37.351Z,36.22
2022-08-29T06:39:08.127Z,36.23
2022-08-29T06:41:36.690Z,36.21
2022-08-29T06:44:06.826Z,36.15
2022-08-29T06:46:36.661Z,36.07
2022-08-29T06:49:06.084Z,36.27
2022-08-29T06:51:35.254Z,36.37
2022-08-29T06:54:07.341Z,36.23
2022-08-29T06:56:37.141Z,36.34
2022-08-29T06:59:05.908Z,36.79
2022-08-29T07:01:33.541Z,37.19
2022-08-29T07:04:01.815Z,37.41
2022-08-29T07:06:29.319Z,37.69
2022-08-29T07:08:57.379Z,37.89
2022-08-29T07:11:32.453Z,38.02
2022-08-29T07:14:01.921Z,38.26
2022-08-29T07:16:29.430Z,38.50
2022-08-29T07:18:56.414Z,38.60
2022-08-29T07:21:26.145Z,38.89
2022-08-29T07:23:55.098Z,39.07
2022-08-29T07:26:24.925Z,39.37
2022-08-29T07:28:54.703Z,39.75
2022-08-29T07:31:22.107Z,40.03
2022-08-29T07:33:54.402Z,40.24
2022-08-29T07:36:29.472Z,40.44
2022-08-29T07:38:56.223Z,40.36
2022-08-29T07:41:24.531Z,40.48
2022-08-29T07:43:51.780Z,40.70
2022-08-29T07:46:20.933Z,41.05
2022-08-29T07:48:48.129Z,41.36
2022-08-29T07:51:17.818Z,41.42
2022-08-29T07:53:46.625Z,41.58
2022-08-29T07:56:16.988Z,41.82
2022-08-29T07:58:44.365Z,41.90
2022-08-29T08:01:20.732Z,41.86
2022-08-29T08:03:49.985Z,42.02
2022-08-29T08:06:17.894Z,42.02
2022-08-29T08:08:44.771Z,42.39
2022-08-29T08:11:11.595Z,42.72
2022-08-29T08:13:39.497Z,43.13
2022-08-29T08:16:09.572Z,42.72
2022-08-29T08:18:37.616Z,43.36
2022-08-29T08:21:05.003Z,43.68
2022-08-29T08:23:32.557Z,43.85
2022-08-29T08:26:00.188Z,44.13
2022-08-29T08:28:29.160Z,44.11
2022-08-29T08:30:57.260Z,44.03
2022-08-29T08:33:24.936Z,44.15
2022-08-29T08:35:52.079Z,44.22
2022-08-29T08:38:21.736Z,44.23
2022-08-29T08:41:00.874Z,44.51
2022-08-29T08:43:54.463Z,44.57
2022-08-29T08:46:43.264Z,44.28
2022-08-29T08:49:16.916Z,44.25
2022-08-29T08:51:51.218Z,44.19
2022-08-29T08:54:24.833Z,44.04
2022-08-29T08:57:01.976Z,44.19
2022-08-29T08:59:44.177Z,44.18
2022-08-29T09:02:35.438Z,44.35
2022-08-29T09:05:03.243Z,44.40
2022-08-29T09:07:42.113Z,44.37
2022-08-29T09:10:11.794Z,44.34
2022-08-29T09:12:52.290Z,44.33
2022-08-29T09:15:33.207Z,44.42
2022-08-29T09:18:13.639Z,44.37
2022-08-29T09:20:43.453Z,44.40
2022-08-29T09:23:25.791Z,44.60
2022-08-29T09:25:52.862Z,44.67
2022-08-29T09:28:20.634Z,44.69
2022-08-29T09:31:18.294Z,44.54
2022-08-29T09:33:49.997Z,44.48
2022-08-29T09:36:40.348Z,44.61
2022-08-29T09:39:15.734Z,44.85
2022-08-29T09:41:44.345Z,44.99
2022-08-29T09:44:31.592Z,45.49
2022-08-29T09:47:19.306Z,45.94
2022-08-29T09:50:08.659Z,45.90
2022-08-29T09:52:38.710Z,45.98
2022-08-29T09:55:20.144Z,45.81
2022-08-29T09:58:02.252Z,45.73
2022-08-29T10:00:36.933Z,45.82
2022-08-29T10:03:10.217Z,45.99
2022-08-29T10:05:46.591Z,46.22
2022-08-29T10:08:29.493Z,46.45
2022-08-29T10:11:00.158Z,46.69
2022-08-29T10:14:14.626Z,46.77
2022-08-29T10:17:16.451Z,46.84
2022-08-29T10:19:45.830Z,46.94
2022-08-29T10:22:47.530Z,47.27
2022-08-29T10:25:36.566Z,47.28
2022-08-29T10:28:32.975Z,47.13
2022-08-29T10:31:16.991Z,46.88
2022-08-29T10:34:20.165Z,47.21
2022-08-29T10:36:54.152Z,47.36
2022-08-29T10:40:00.824Z,47.28
2022-08-29T10:42:34.367Z,47.03
2022-08-29T10:45:18.372Z,46.61
2022-08-29T10:48:04.553Z,46.46
2022-08-29T10:50:52.955Z,46.10
2022-08-29T10:53:29.328Z,45.19
2022-08-29T10:56:03.132Z,44.28
2022-08-29T10:58:39.155Z,44.08
2022-08-29T11:01:18.201Z,44.33
2022-08-29T11:03:59.366Z,44.84
2022-08-29T11:06:34.205Z,44.55
2022-08-29T11:09:34.959Z,43.87
2022-08-29T11:12:23.697Z,43.33
2022-08-29T11:15:09.165Z,43.40
2022-08-29T11:17:40.895Z,43.83
2022-08-29T11:20:20.142Z,44.17
2022-08-29T11:23:12.824Z,44.66
2022-08-29T11:25:42.047Z,45.12
2022-08-29T11:28:55.095Z,45.54
2022-08-29T11:31:37.489Z,45.79
2022-08-29T11:34:13.719Z,46.16
2022-08-29T11:36:57.021Z,46.69
2022-08-29T11:39:58.083Z,47.18
2022-08-29T11:45:23.939Z,47.48
2022-08-29T11:48:18.990Z,47.79
2022-08-29T11:50:49.351Z,47.47
2022-08-29T11:53:35.222Z,46.96
2022-08-29T11:56:14.379Z,46.94
2022-08-29T11:58:50.303Z,47.07
2022-08-29T12:01:26.015Z,47.00
2022-08-29T12:03:54.940Z,46.43
2022-08-29T12:06:51.056Z,46.04
2022-08-29T12:09:30.514Z,45.83
2022-08-29T12:12:07.375Z,45.26
2022-08-29T12:14:42.322Z,44.57
2022-08-29T12:17:17.411Z,43.65
2022-08-29T12:20:10.711Z,42.85
2022-08-29T12:22:55.256Z,42.13
2022-08-29T12:25:28.082Z,41.77
2022-08-29T12:28:06.564Z,41.49
2022-08-29T12:30:39.752Z,41.54
2022-08-29T12:33:25.092Z,41.75
2022-08-29T12:36:13.905Z,42.03
2022-08-29T12:38:50.699Z,42.33
2022-08-29T12:41:23.223Z,42.66
2022-08-29T12:43:54.506Z,42.98
2022-08-29T12:46:21.197Z,43.35
2022-08-29T12:48:58.706Z,43.50
2022-08-29T12:51:37.905Z,43.58
2022-08-29T12:54:06.088Z,43.74
2022-08-29T12:56:33.824Z,43.98
2022-08-29T12:59:04.049Z,44.04
2022-08-29T13:01:38.674Z,43.74
2022-08-29T13:04:11.375Z,42.73
2022-08-29T13:06:52.789Z,41.97
2022-08-29T13:09:26.695Z,41.11
2022-08-29T13:12:13.937Z,40.37
2022-08-29T13:15:01.791Z,40.08
2022-08-29T13:17:34.778Z,39.91
2022-08-29T13:20:42.755Z,39.22
2022-08-29T13:23:28.122Z,39.64
2022-08-29T13:26:21.312Z,39.92
2022-08-29T13:28:48.172Z,39.89
2022-08-29T13:31:14.962Z,39.57
2022-08-29T13:33:59.429Z,39.73
2022-08-29T13:36:59.032Z,39.61
2022-08-29T13:39:34.380Z,38.83
2022-08-29T13:42:01.950Z,37.61
2022-08-29T13:44:36.485Z,37.73
2022-08-29T13:47:32.078Z,37.59
2022-08-29T13:50:02.145Z,37.68
2022-08-29T13:52:31.533Z,37.49
2022-08-29T13:54:59.264Z,37.28
2022-08-29T13:57:29.132Z,37.05
2022-08-29T13:59:57.752Z,36.82
2022-08-29T14:02:26.001Z,36.64
2022-08-29T14:04:53.215Z,36.66
2022-08-29T14:07:25.502Z,36.73
2022-08-29T14:09:52.627Z,37.00
2022-08-29T14:12:19.501Z,37.35
2022-08-29T14:14:48.450Z,37.66
2022-08-29T14:17:18.643Z,38.01
2022-08-29T14:19:47.034Z,38.17
2022-08-29T14:22:14.804Z,37.92
2022-08-29T14:24:41.915Z,37.87
2022-08-29T14:27:09.507Z,37.91
2022-08-29T14:29:36.660Z,37.75
2022-08-29T14:32:04.291Z,37.39
2022-08-29T14:34:32.968Z,36.80
2022-08-29T14:37:02.712Z,36.36
2022-08-29T14:39:29.569Z,35.99
2022-08-29T14:41:56.571Z,35.62
2022-08-29T14:44:23.732Z,35.25
2022-08-29T14:46:51.648Z,35.00
2022-08-29T14:49:19.374Z,34.76
2022-08-29T14:51:46.769Z,34.52
2022-08-29T14:54:14.036Z,34.25
2022-08-29T14:56:50.597Z,33.88
2022-08-29T14:59:22.130Z,33.54
2022-08-29T15:01:54.285Z,33.27
2022-08-29T15:04:35.528Z,32.96
2022-08-29T15:07:08.006Z,32.67
2022-08-29T15:09:35.200Z,32.45
2022-08-29T15:12:02.175Z,32.23
2022-08-29T15:14:29.104Z,32.03
2022-08-29T15:16:55.954Z,31.83
2022-08-29T15:20:24.300Z,31.62
2022-08-29T15:22:10.656Z,31.42
2022-08-29T15:24:38.270Z,31.31
2022-08-29T15:27:05.780Z,31.21
2022-08-29T15:29:35.074Z,31.17
2022-08-29T15:32:01.967Z,31.15
2022-08-29T15:34:29.201Z,31.13
2022-08-29T15:36:56.996Z,31.09
2022-08-29T15:39:28.033Z,31.06
2022-08-29T15:41:56.996Z,30.99
2022-08-29T15:44:24.357Z,30.86
2022-08-29T15:46:52.663Z,30.76
2022-08-29T15:49:23.232Z,30.69
2022-08-29T15:51:53.113Z,30.61
2022-08-29T15:54:21.279Z,30.52
2022-08-29T15:56:48.280Z,30.44
2022-08-29T15:59:16.060Z,30.40
2022-08-29T16:01:45.661Z,30.29
2022-08-29T16:04:14.104Z,30.21
2022-08-29T16:06:40.994Z,30.13
2022-08-29T16:09:15.874Z,30.03
2022-08-29T16:11:51.995Z,29.90
2022-08-29T16:17:07.033Z,29.62
2022-08-29T16:19:37.301Z,29.49
2022-08-29T16:22:05.893Z,29.31
2022-08-29T16:24:34.946Z,29.13
2022-08-29T16:27:02.298Z,28.95
2022-08-29T16:29:29.642Z,28.75
2022-08-29T16:31:58.524Z,28.55
2022-08-29T16:34:27.128Z,28.36
2022-08-29T16:36:58.924Z,28.16
2022-08-29T16:39:26.713Z,27.97
2022-08-29T16:41:54.023Z,27.80
2022-08-29T16:44:21.327Z,27.63
2022-08-29T16:46:48.212Z,27.49
2022-08-29T16:49:15.292Z,27.36
2022-08-29T16:51:42.181Z,27.23
2022-08-29T16:54:09.145Z,27.10
2022-08-29T16:56:36.086Z,26.96
2022-08-29T16:59:04.419Z,26.86
2022-08-29T17:01:57.356Z,26.76
2022-08-29T17:04:27.817Z,26.67
2022-08-29T17:06:55.405Z,26.59
2022-08-29T17:09:24.168Z,26.52
2022-08-29T17:11:53.283Z,26.45
2022-08-29T17:14:22.473Z,26.38
2022-08-29T17:16:51.599Z,26.32
2022-08-29T17:19:19.059Z,26.27
2022-08-29T17:21:46.675Z,26.21
2022-08-29T17:24:15.420Z,26.13
2022-08-29T17:26:44.978Z,26.06
2022-08-29T17:29:12.554Z,25.95
2022-08-29T17:31:39.957Z,25.88
2022-08-29T17:34:08.547Z,25.78
2022-08-29T17:36:37.454Z,25.66
2022-08-29T17:39:06.386Z,25.55
2022-08-29T17:41:35.594Z,25.46
2022-08-29T17:44:02.956Z,25.36
2022-08-29T17:46:30.271Z,25.27
2022-08-29T17:48:57.195Z,25.19
2022-08-29T17:51:24.288Z,25.09
2022-08-29T17:53:51.603Z,24.97
2022-08-29T17:56:25.409Z,24.84
2022-08-29T17:58:52.370Z,24.67
2022-08-29T18:01:19.421Z,24.51
2022-08-29T18:03:46.915Z,24.37
2022-08-29T18:06:14.897Z,24.22
2022-08-29T18:08:46.939Z,24.09
2022-08-29T18:11:16.424Z,23.96
2022-08-29T18:13:43.585Z,23.88
2022-08-29T18:16:11.572Z,23.80
2022-08-29T18:18:39.095Z,23.76
2022-08-29T18:21:06.161Z,23.72
2022-08-29T18:23:33.296Z,23.67
2022-08-29T18:26:00.600Z,23.63
2022-08-29T18:28:27.630Z,23.60
2022-08-29T18:30:54.781Z,23.56
2022-08-29T18:33:22.032Z,23.52
2022-08-29T18:35:48.816Z,23.48
2022-08-29T18:38:16.346Z,23.48
2022-08-29T18:40:44.094Z,23.45
2022-08-29T18:43:13.394Z,23.42
2022-08-29T18:45:41.076Z,23.38
2022-08-29T18:48:08.944Z,23.35
2022-08-29T18:50:36.638Z,23.31
2022-08-29T18:53:11.355Z,23.26
2022-08-29T18:55:40.732Z,23.20
2022-08-29T18:58:07.868Z,23.17
2022-08-29T19:00:35.153Z,23.12
2022-08-29T19:03:03.168Z,23.07
2022-08-29T19:05:31.638Z,23.02
2022-08-29T19:07:59.356Z,22.99
2022-08-29T19:10:28.203Z,22.95
2022-08-29T19:12:56.939Z,22.88
2022-08-29T19:15:26.429Z,22.81
2022-08-29T19:17:54.210Z,22.72
2022-08-29T19:20:43.395Z,22.66
2022-08-29T19:23:10.821Z,22.59
2022-08-29T19:25:40.622Z,22.54
2022-08-29T19:28:08.582Z,22.51
2022-08-29T19:30:38.149Z,22.49
2022-08-29T19:33:09.505Z,22.47
2022-08-29T19:35:38.793Z,22.46
2022-08-29T19:38:07.542Z,22.44
2022-08-29T19:40:39.159Z,22.44
2022-08-29T19:43:14.210Z,22.44
2022-08-29T19:45:42.959Z,22.45
2022-08-29T19:48:15.088Z,22.45
2022-08-29T19:50:47.533Z,22.47
2022-08-29T19:53:17.166Z,22.48
2022-08-29T19:55:54.475Z,22.43
2022-08-29T19:58:23.607Z,22.45
2022-08-29T20:01:00.036Z,22.42
2022-08-29T20:03:27.715Z,22.39
2022-08-29T20:05:55.499Z,22.36
2022-08-29T20:08:23.310Z,22.36
2022-08-29T20:10:51.298Z,22.35
2022-08-29T20:13:19.353Z,22.33
2022-08-29T20:15:46.098Z,22.31
2022-08-29T20:18:13.157Z,22.28
2022-08-29T20:20:40.033Z,22.24
2022-08-29T20:23:07.330Z,22.22
2022-08-29T20:25:35.256Z,22.22
2022-08-29T20:28:03.034Z,22.18
2022-08-29T20:30:32.955Z,22.15
2022-08-29T20:33:00.427Z,22.11
2022-08-29T20:35:46.245Z,22.07
2022-08-29T20:38:13.022Z,22.06
2022-08-29T20:40:46.587Z,22.01
2022-08-29T20:43:17.546Z,21.98
2022-08-29T20:45:44.390Z,21.96
2022-08-29T20:48:12.423Z,21.95
2022-08-29T20:50:39.658Z,21.94
2022-08-29T20:53:06.671Z,21.94
2022-08-29T20:55:33.880Z,21.95
2022-08-29T20:58:00.794Z,21.97
2022-08-29T21:00:27.941Z,21.99
2022-08-29T21:03:13.434Z,21.97
2022-08-29T21:05:43.413Z,21.95
2022-08-29T21:08:22.688Z,21.92
2022-08-29T21:10:51.672Z,21.87
2022-08-29T21:13:19.286Z,21.82
2022-08-29T21:15:46.743Z,21.77
2022-08-29T21:18:16.131Z,21.73
2022-08-29T21:20:54.402Z,21.68
2022-08-29T21:23:23.422Z,21.62
2022-08-29T21:25:55.309Z,21.59
2022-08-29T21:28:22.558Z,21.55
2022-08-29T21:30:49.374Z,21.49
2022-08-29T21:33:16.451Z,21.43
2022-08-29T21:35:43.327Z,21.40
2022-08-29T21:38:11.196Z,21.35
2022-08-29T21:40:44.067Z,21.33
2022-08-29T21:43:19.667Z,21.29
2022-08-29T21:45:47.361Z,21.25
2022-08-29T21:48:14.234Z,21.22
2022-08-29T21:50:40.935Z,21.16
2022-08-29T21:53:07.941Z,21.12
2022-08-29T21:55:34.771Z,21.04
2022-08-29T21:58:02.094Z,21.01
2022-08-29T22:00:33.244Z,20.97
2022-08-29T22:03:02.345Z,20.92
2022-08-29T22:05:30.912Z,20.88
2022-08-29T22:07:58.186Z,20.84
2022-08-29T22:10:29.126Z,20.80
2022-08-29T22:12:56.141Z,20.76
2022-08-29T22:15:42.297Z,20.72
2022-08-29T22:18:09.502Z,20.66
2022-08-29T22:20:38.443Z,20.61
2022-08-29T22:23:05.955Z,20.56
2022-08-29T22:25:32.984Z,20.49
2022-08-29T22:27:59.904Z,20.44
2022-08-29T22:30:32.092Z,20.34
2022-08-29T22:33:00.181Z,20.27
2022-08-29T22:35:28.540Z,20.18
2022-08-29T22:37:55.454Z,20.10
2022-08-29T22:40:28.732Z,20.02
2022-08-29T22:42:56.539Z,19.96
2022-08-29T22:45:23.706Z,19.90
2022-08-29T22:47:50.570Z,19.83
2022-08-29T22:50:23.309Z,19.76
2022-08-29T22:52:50.405Z,19.70
2022-08-29T22:57:47.685Z,19.58
2022-08-29T23:00:19.296Z,19.52
2022-08-29T23:02:47.177Z,19.44
2022-08-29T23:05:14.511Z,19.39
2022-08-29T23:07:41.623Z,19.39
2022-08-29T23:10:09.320Z,19.41
2022-08-29T23:12:36.776Z,19.42
2022-08-29T23:15:10.175Z,19.45
2022-08-29T23:17:37.145Z,19.50
2022-08-29T23:20:05.999Z,19.56
2022-08-29T23:22:33.114Z,19.63
2022-08-29T23:25:00.537Z,19.66
2022-08-29T23:27:28.949Z,19.70
2022-08-29T23:29:55.928Z,19.72
2022-08-29T23:32:22.789Z,19.75
2022-08-29T23:34:49.611Z,19.77
2022-08-29T23:37:16.483Z,19.80
2022-08-29T23:39:43.278Z,19.78
2022-08-29T23:42:10.098Z,19.77
2022-08-29T23:44:36.913Z,19.76
2022-08-29T23:47:03.951Z,19.72
2022-08-29T23:49:30.962Z,19.68
2022-08-29T23:51:57.731Z,19.64
2022-08-29T23:54:26.239Z,19.59
2022-08-29T23:56:53.588Z,19.55
2022-08-29T23:59:39.216Z,19.51
